createdAt,value
2023-03-20T00:00:26.862Z,100.00
2023-03-20T00:02:53.209Z,100.00
2023-03-20T00:05:21.768Z,100.00
2023-03-20T00:07:49.349Z,100.00
2023-03-20T00:10:17.821Z,100.00
2023-03-20T00:12:46.626Z,100.00
2023-03-20T00:15:27.029Z,100.00
2023-03-20T00:17:54.158Z,100.00
2023-03-20T00:20:21.473Z,100.00
2023-03-20T00:22:48.334Z,100.00
2023-03-20T00:25:17.130Z,100.00
2023-03-20T00:27:44.483Z,100.00
2023-03-20T00:30:30.707Z,100.00
2023-03-20T00:32:58.546Z,100.00
2023-03-20T00:35:31.131Z,100.00
2023-03-20T00:37:58.199Z,100.00
2023-03-20T00:40:31.681Z,100.00
2023-03-20T00:43:03.004Z,100.00
2023-03-20T00:45:31.402Z,100.00
2023-03-20T00:47:58.608Z,100.00
2023-03-20T00:50:29.591Z,100.00
2023-03-20T00:52:57.504Z,100.00
2023-03-20T00:55:27.402Z,100.00
2023-03-20T00:57:57.200Z,100.00
2023-03-20T01:00:39.964Z,100.00
2023-03-20T01:03:17.357Z,100.00
2023-03-20T01:05:45.123Z,100.00
2023-03-20T01:08:23.836Z,100.00
2023-03-20T01:10:53.598Z,100.00
2023-03-20T01:13:26.890Z,100.00
2023-03-20T01:15:54.508Z,100.00
2023-03-20T01:18:23.088Z,100.00
2023-03-20T01:20:50.386Z,100.00
2023-03-20T01:23:16.804Z,100.00
2023-03-20T01:25:43.663Z,100.00
2023-03-20T01:28:16.496Z,100.00
2023-03-20T01:30:43.306Z,100.00
2023-03-20T01:33:18.420Z,100.00
2023-03-20T01:35:47.155Z,100.00
2023-03-20T01:38:18.885Z,100.00
2023-03-20T01:40:54.310Z,100.00
2023-03-20T01:43:22.845Z,100.00
2023-03-20T01:46:09.514Z,100.00
2023-03-20T01:48:57.991Z,100.00
2023-03-20T01:51:27.356Z,100.00
2023-03-20T01:54:07.237Z,100.00
2023-03-20T01:56:39.217Z,100.00
2023-03-20T01:59:30.865Z,100.00
2023-03-20T02:01:57.765Z,100.00
2023-03-20T02:04:30.150Z,100.00
2023-03-20T02:06:57.060Z,100.00
2023-03-20T02:09:23.455Z,100.00
2023-03-20T02:11:50.224Z,100.00
2023-03-20T02:14:16.702Z,100.00
2023-03-20T02:16:43.174Z,100.00
2023-03-20T02:19:22.580Z,100.00
2023-03-20T02:22:00.977Z,100.00
2023-03-20T02:25:02.242Z,100.00
2023-03-20T02:28:14.743Z,100.00
2023-03-20T02:30:57.091Z,100.00
2023-03-20T02:33:36.822Z,100.00
2023-03-20T02:36:43.008Z,100.00
2023-03-20T02:39:43.573Z,100.00
2023-03-20T02:42:36.131Z,100.00
2023-03-20T02:45:22.573Z,100.00
2023-03-20T02:48:10.579Z,100.00
2023-03-20T02:50:50.024Z,100.00
2023-03-20T02:53:28.485Z,100.00
2023-03-20T02:56:07.579Z,100.00
2023-03-20T02:59:04.770Z,100.00
2023-03-20T03:01:45.769Z,100.00
2023-03-20T03:04:18.827Z,100.00
2023-03-20T03:06:49.227Z,100.00
2023-03-20T03:09:33.809Z,100.00
2023-03-20T03:12:09.579Z,100.00
2023-03-20T03:14:41.414Z,100.00
2023-03-20T03:17:09.734Z,100.00
2023-03-20T03:19:39.495Z,100.00
2023-03-20T03:22:06.290Z,100.00
2023-03-20T03:24:53.858Z,100.00
2023-03-20T03:27:26.093Z,100.00
2023-03-20T03:30:01.773Z,100.00
2023-03-20T03:32:31.644Z,100.00
2023-03-20T03:35:00.626Z,100.00
2023-03-20T03:37:50.344Z,100.00
2023-03-20T03:40:25.213Z,100.00
2023-03-20T03:42:57.811Z,100.00
2023-03-20T03:45:36.352Z,100.00
2023-03-20T03:48:16.149Z,100.00
2023-03-20T03:50:48.642Z,100.00
2023-03-20T03:53:20.153Z,100.00
2023-03-20T03:55:54.034Z,100.00
2023-03-20T03:58:35.773Z,100.00
2023-03-20T04:01:04.847Z,100.00
2023-03-20T04:03:37.773Z,100.00
2023-03-20T04:06:06.509Z,100.00
2023-03-20T04:08:34.299Z,100.00
2023-03-20T04:11:00.796Z,100.00
2023-03-20T04:13:27.226Z,100.00
2023-03-20T04:15:53.699Z,100.00
2023-03-20T04:18:20.150Z,100.00
2023-03-20T04:20:47.300Z,100.00
2023-03-20T04:23:14.577Z,100.00
2023-03-20T04:25:41.309Z,100.00
2023-03-20T04:28:07.701Z,100.00
2023-03-20T04:30:34.101Z,100.00
2023-03-20T04:33:00.947Z,100.00
2023-03-20T04:35:27.342Z,100.00
2023-03-20T04:37:53.681Z,100.00
2023-03-20T04:40:20.100Z,100.00
2023-03-20T04:42:46.487Z,100.00
2023-03-20T04:45:12.894Z,100.00
2023-03-20T04:47:39.440Z,100.00
2023-03-20T04:50:06.559Z,100.00
2023-03-20T04:52:32.954Z,100.00
2023-03-20T04:54:59.326Z,100.00
2023-03-20T04:57:26.005Z,100.00
2023-03-20T04:59:52.398Z,100.00
2023-03-20T05:02:18.760Z,100.00
2023-03-20T05:04:45.135Z,100.00
2023-03-20T05:07:11.491Z,100.00
2023-03-20T05:09:37.869Z,100.00
2023-03-20T05:12:04.640Z,100.00
2023-03-20T05:14:31.105Z,100.00
2023-03-20T05:16:57.525Z,100.00
2023-03-20T05:19:24.012Z,100.00
2023-03-20T05:21:50.824Z,100.00
2023-03-20T05:24:17.199Z,100.00
2023-03-20T05:26:43.552Z,100.00
2023-03-20T05:29:09.908Z,100.00
2023-03-20T05:31:36.252Z,100.00
2023-03-20T05:34:02.813Z,100.00
2023-03-20T05:36:29.161Z,100.00
2023-03-20T05:38:55.558Z,100.00
2023-03-20T05:41:21.903Z,100.00
2023-03-20T05:43:48.328Z,100.00
2023-03-20T05:46:15.601Z,100.00
2023-03-20T05:48:42.009Z,100.00
2023-03-20T05:51:08.451Z,100.00
2023-03-20T05:53:34.804Z,100.00
2023-03-20T05:56:01.158Z,100.00
2023-03-20T05:58:27.518Z,100.00
2023-03-20T06:00:53.975Z,100.00
2023-03-20T06:03:20.331Z,100.00
2023-03-20T06:05:46.693Z,100.00
2023-03-20T06:08:13.112Z,100.00
2023-03-20T06:10:39.485Z,100.00
2023-03-20T06:13:05.829Z,100.00
2023-03-20T06:15:32.276Z,100.00
2023-03-20T06:17:58.905Z,100.00
2023-03-20T06:20:25.613Z,100.00
2023-03-20T06:22:52.281Z,100.00
2023-03-20T06:25:19.299Z,100.00
2023-03-20T06:27:49.427Z,100.00
2023-03-20T06:30:16.598Z,100.00
2023-03-20T06:32:43.483Z,100.00
2023-03-20T06:35:11.130Z,100.00
2023-03-20T06:37:37.817Z,100.00
2023-03-20T06:40:05.590Z,100.00
2023-03-20T06:42:32.214Z,100.00
2023-03-20T06:44:58.587Z,100.00
2023-03-20T06:47:24.994Z,100.00
2023-03-20T06:49:51.613Z,100.00
2023-03-20T06:52:21.515Z,100.00
2023-03-20T06:54:48.192Z,100.00
2023-03-20T06:57:15.444Z,100.00
2023-03-20T06:59:42.064Z,100.00
2023-03-20T07:02:10.767Z,100.00
2023-03-20T07:04:37.460Z,100.00
2023-03-20T07:07:04.192Z,100.00
2023-03-20T07:09:30.632Z,100.00
2023-03-20T07:11:56.995Z,100.00
2023-03-20T07:14:23.432Z,100.00
2023-03-20T07:16:49.812Z,100.00
2023-03-20T07:19:16.717Z,100.00
2023-03-20T07:21:43.729Z,100.00
2023-03-20T07:24:10.180Z,100.00
2023-03-20T07:26:36.619Z,100.00
2023-03-20T07:29:03.118Z,100.00
2023-03-20T07:31:31.122Z,100.00
2023-03-20T07:33:58.316Z,100.00
2023-03-20T07:36:24.958Z,100.00
2023-03-20T07:38:51.392Z,100.00
2023-03-20T07:41:17.770Z,100.00
2023-03-20T07:43:44.869Z,100.00
2023-03-20T07:46:11.505Z,100.00
2023-03-20T07:48:37.895Z,100.00
2023-03-20T07:51:04.585Z,100.00
2023-03-20T07:53:30.989Z,100.00
2023-03-20T07:55:57.371Z,100.00
2023-03-20T07:58:23.722Z,100.00
2023-03-20T08:00:50.078Z,100.00
2023-03-20T08:03:16.587Z,100.00
2023-03-20T08:05:45.878Z,100.00
2023-03-20T08:08:13.500Z,100.00
2023-03-20T08:10:40.032Z,100.00
2023-03-20T08:13:06.626Z,100.00
2023-03-20T08:15:33.120Z,100.00
2023-03-20T08:17:59.633Z,100.00
2023-03-20T08:20:26.583Z,100.00
2023-03-20T08:22:53.127Z,100.00
2023-03-20T08:25:19.515Z,100.00
2023-03-20T08:27:46.562Z,100.00
2023-03-20T08:30:13.980Z,100.00
2023-03-20T08:32:40.552Z,100.00
2023-03-20T08:35:16.340Z,100.00
2023-03-20T08:37:48.664Z,100.00
2023-03-20T08:40:15.335Z,100.00
2023-03-20T08:42:41.737Z,100.00
2023-03-20T08:45:08.585Z,100.00
2023-03-20T08:47:35.217Z,100.00
2023-03-20T08:50:01.609Z,100.00
2023-03-20T08:52:28.140Z,100.00
2023-03-20T08:54:54.583Z,100.00
2023-03-20T08:57:20.973Z,100.00
2023-03-20T08:59:47.336Z,100.00
2023-03-20T09:02:13.773Z,100.00
2023-03-20T09:04:40.443Z,100.00
2023-03-20T09:07:07.265Z,99.96
2023-03-20T09:09:33.627Z,100.00
2023-03-20T09:12:00.514Z,100.00
2023-03-20T09:14:27.813Z,100.00
2023-03-20T09:16:54.264Z,100.00
2023-03-20T09:19:21.013Z,97.30
2023-03-20T09:21:47.493Z,96.84
2023-03-20T09:24:13.849Z,92.36
2023-03-20T09:26:40.452Z,86.30
2023-03-20T09:29:06.836Z,85.18
2023-03-20T09:31:34.218Z,86.08
2023-03-20T09:34:00.765Z,85.46
2023-03-20T09:36:27.127Z,87.01
2023-03-20T09:38:53.484Z,85.63
2023-03-20T09:41:26.751Z,86.17
2023-03-20T09:44:09.674Z,86.17
2023-03-20T09:46:49.267Z,90.72
2023-03-20T09:49:21.496Z,86.35
2023-03-20T09:52:04.002Z,86.87
2023-03-20T09:54:52.723Z,87.34
2023-03-20T09:57:32.463Z,85.20
2023-03-20T10:00:03.581Z,84.22
2023-03-20T10:02:39.726Z,83.77
2023-03-20T10:05:19.651Z,83.81
2023-03-20T10:07:46.512Z,83.01
2023-03-20T10:10:20.332Z,84.51
2023-03-20T10:13:25.909Z,82.41
2023-03-20T10:16:13.576Z,82.58
2023-03-20T10:18:49.212Z,80.85
2023-03-20T10:21:23.537Z,82.34
2023-03-20T10:24:04.264Z,83.67
2023-03-20T10:26:35.916Z,83.03
2023-03-20T10:29:07.511Z,82.62
2023-03-20T10:31:40.296Z,83.36
2023-03-20T10:34:50.214Z,84.10
2023-03-20T10:37:31.903Z,84.57
2023-03-20T10:40:17.394Z,83.20
2023-03-20T10:42:47.504Z,83.44
2023-03-20T10:45:31.024Z,80.82
2023-03-20T10:48:01.228Z,79.97
2023-03-20T10:50:44.354Z,79.84
2023-03-20T10:53:24.813Z,79.60
2023-03-20T10:55:52.553Z,80.05
2023-03-20T10:58:24.555Z,77.28
2023-03-20T11:00:53.457Z,78.17
2023-03-20T11:03:28.757Z,78.29
2023-03-20T11:06:12.657Z,77.31
2023-03-20T11:08:41.932Z,76.52
2023-03-20T11:11:09.309Z,75.52
2023-03-20T11:13:42.331Z,74.21
2023-03-20T11:16:31.578Z,73.70
2023-03-20T11:19:06.886Z,73.93
2023-03-20T11:21:35.881Z,72.07
2023-03-20T11:24:04.243Z,71.23
2023-03-20T11:26:37.330Z,66.92
2023-03-20T11:29:07.919Z,66.50
2023-03-20T11:31:38.244Z,68.14
2023-03-20T11:34:04.637Z,67.94
2023-03-20T11:36:34.576Z,69.54
2023-03-20T11:39:29.730Z,67.21
2023-03-20T11:41:57.908Z,66.45
2023-03-20T11:44:24.209Z,64.06
2023-03-20T11:46:57.441Z,61.94
2023-03-20T11:49:26.010Z,59.43
2023-03-20T11:51:52.627Z,61.43
2023-03-20T11:54:22.498Z,61.52
2023-03-20T11:56:57.668Z,61.92
2023-03-20T11:59:33.914Z,60.39
2023-03-20T12:02:02.795Z,59.20
2023-03-20T12:04:32.030Z,59.05
2023-03-20T12:07:12.758Z,57.86
2023-03-20T12:09:48.330Z,55.04
2023-03-20T12:12:42.735Z,55.48
2023-03-20T12:15:27.767Z,54.95
2023-03-20T12:18:02.989Z,58.12
2023-03-20T12:20:46.014Z,58.66
2023-03-20T12:23:21.360Z,57.99
2023-03-20T12:26:12.621Z,56.54
2023-03-20T12:29:01.617Z,55.43
2023-03-20T12:31:50.180Z,57.56
2023-03-20T12:34:46.872Z,56.41
2023-03-20T12:37:18.145Z,56.59
2023-03-20T12:39:52.048Z,56.89
2023-03-20T12:42:31.186Z,57.58
2023-03-20T12:45:03.955Z,58.43
2023-03-20T12:47:32.975Z,58.21
2023-03-20T12:50:29.996Z,58.34
2023-03-20T12:53:34.157Z,58.33
2023-03-20T12:56:36.619Z,59.89
2023-03-20T12:59:23.090Z,59.66
2023-03-20T13:02:03.750Z,59.82
2023-03-20T13:04:47.389Z,60.06
2023-03-20T13:07:19.513Z,60.71
2023-03-20T13:10:09.117Z,60.31
2023-03-20T13:12:51.161Z,60.21
2023-03-20T13:15:31.903Z,61.92
2023-03-20T13:18:22.404Z,60.72
2023-03-20T13:20:52.163Z,62.92
2023-03-20T13:23:46.031Z,62.63
2023-03-20T13:26:30.969Z,61.69
2023-03-20T13:29:25.755Z,61.24
2023-03-20T13:32:18.122Z,59.20
2023-03-20T13:34:55.341Z,60.52
2023-03-20T13:37:36.210Z,58.89
2023-03-20T13:40:02.546Z,60.93
2023-03-20T13:42:42.160Z,58.65
2023-03-20T13:45:41.851Z,59.56
2023-03-20T13:48:30.059Z,60.11
2023-03-20T13:51:29.800Z,57.32
2023-03-20T13:54:33.829Z,58.67
2023-03-20T13:57:22.358Z,54.64
2023-03-20T14:00:26.772Z,52.65
2023-03-20T14:03:18.432Z,53.13
2023-03-20T14:05:46.365Z,52.42
2023-03-20T14:08:27.846Z,53.96
2023-03-20T14:11:05.106Z,55.41
2023-03-20T14:13:33.909Z,49.73
2023-03-20T14:16:03.424Z,53.16
2023-03-20T14:18:31.185Z,51.55
2023-03-20T14:21:00.805Z,51.22
2023-03-20T14:23:37.741Z,52.00
2023-03-20T14:26:08.202Z,52.88
2023-03-20T14:28:53.135Z,50.77
2023-03-20T14:31:25.178Z,51.06
2023-03-20T14:34:14.014Z,52.39
2023-03-20T14:36:58.673Z,53.31
2023-03-20T14:39:40.211Z,53.89
2023-03-20T14:42:12.486Z,53.53
2023-03-20T14:44:53.399Z,52.62
2023-03-20T14:47:31.135Z,55.15
2023-03-20T14:50:12.551Z,53.73
2023-03-20T14:52:55.594Z,55.34
2023-03-20T14:55:24.801Z,55.82
2023-03-20T14:57:56.899Z,57.27
2023-03-20T15:00:27.222Z,56.89
2023-03-20T15:03:07.976Z,55.62
2023-03-20T15:05:37.851Z,55.40
2023-03-20T15:08:29.175Z,55.76
2023-03-20T15:10:59.713Z,58.25
2023-03-20T15:13:27.791Z,59.02
2023-03-20T15:16:02.970Z,60.22
2023-03-20T15:18:31.025Z,59.79
2023-03-20T15:20:58.049Z,60.76
2023-03-20T15:23:26.035Z,60.08
2023-03-20T15:25:52.904Z,59.63
2023-03-20T15:28:26.252Z,60.35
2023-03-20T15:30:57.310Z,61.13
2023-03-20T15:33:41.802Z,61.58
2023-03-20T15:36:37.110Z,61.08
2023-03-20T15:39:12.306Z,60.69
2023-03-20T15:41:39.246Z,60.43
2023-03-20T15:44:14.514Z,61.28
2023-03-20T15:46:54.162Z,62.02
2023-03-20T15:49:22.041Z,64.47
2023-03-20T15:51:50.244Z,61.58
2023-03-20T15:54:17.815Z,60.23
2023-03-20T15:56:46.369Z,61.76
2023-03-20T15:59:24.665Z,63.48
2023-03-20T16:01:53.824Z,62.46
2023-03-20T16:04:21.018Z,61.57
2023-03-20T16:06:53.746Z,63.11
2023-03-20T16:09:20.339Z,65.10
2023-03-20T16:11:49.736Z,62.83
2023-03-20T16:14:21.209Z,65.02
2023-03-20T16:16:50.098Z,63.36
2023-03-20T16:19:17.668Z,63.90
2023-03-20T16:21:48.902Z,63.93
2023-03-20T16:24:19.476Z,64.87
2023-03-20T16:26:49.752Z,64.92
2023-03-20T16:29:17.209Z,64.22
2023-03-20T16:31:57.494Z,66.65
2023-03-20T16:34:30.528Z,66.81
2023-03-20T16:37:06.192Z,66.64
2023-03-20T16:39:32.584Z,66.53
2023-03-20T16:42:07.999Z,67.06
2023-03-20T16:44:36.865Z,65.76
2023-03-20T16:47:17.369Z,67.55
2023-03-20T16:49:46.777Z,68.30
2023-03-20T16:52:15.799Z,66.15
2023-03-20T16:54:44.659Z,67.44
2023-03-20T16:57:17.700Z,67.50
2023-03-20T16:59:44.649Z,68.89
2023-03-20T17:02:22.541Z,67.93
2023-03-20T17:04:49.824Z,67.73
2023-03-20T17:07:18.746Z,67.77
2023-03-20T17:09:54.429Z,67.25
2023-03-20T17:12:24.052Z,67.76
2023-03-20T17:14:50.610Z,67.83
2023-03-20T17:17:21.041Z,69.56
2023-03-20T17:19:51.758Z,68.16
2023-03-20T17:22:23.979Z,70.15
2023-03-20T17:24:50.914Z,69.40
2023-03-20T17:27:18.482Z,70.28
2023-03-20T17:29:46.358Z,68.29
2023-03-20T17:32:18.490Z,69.75
2023-03-20T17:34:45.541Z,70.18
2023-03-20T17:37:15.579Z,71.46
2023-03-20T17:39:42.529Z,71.36
2023-03-20T17:42:18.331Z,70.40
2023-03-20T17:44:45.127Z,72.01
2023-03-20T17:47:38.257Z,70.76
2023-03-20T17:50:05.129Z,71.17
2023-03-20T17:52:31.556Z,70.70
2023-03-20T17:54:57.940Z,70.74
2023-03-20T17:57:32.685Z,71.25
2023-03-20T18:00:00.380Z,70.53
2023-03-20T18:02:27.178Z,70.99
2023-03-20T18:04:53.675Z,72.71
2023-03-20T18:07:20.507Z,72.59
2023-03-20T18:09:48.887Z,72.55
2023-03-20T18:12:17.490Z,71.29
2023-03-20T18:14:45.562Z,71.88
2023-03-20T18:17:13.245Z,73.27
2023-03-20T18:19:40.462Z,74.00
2023-03-20T18:22:07.773Z,73.04
2023-03-20T18:24:34.760Z,73.74
2023-03-20T18:27:01.512Z,73.67
2023-03-20T18:29:27.909Z,73.94
2023-03-20T18:31:54.302Z,72.87
2023-03-20T18:34:21.166Z,73.73
2023-03-20T18:36:47.559Z,73.89
2023-03-20T18:39:18.566Z,73.28
2023-03-20T18:41:45.653Z,74.03
2023-03-20T18:44:12.481Z,74.01
2023-03-20T18:46:38.927Z,74.31
2023-03-20T18:49:06.109Z,73.97
2023-03-20T18:51:32.618Z,74.03
2023-03-20T18:53:59.000Z,73.93
2023-03-20T18:56:26.727Z,74.55
2023-03-20T18:58:53.375Z,74.30
2023-03-20T19:01:20.554Z,74.51
2023-03-20T19:03:47.905Z,74.54
2023-03-20T19:06:18.022Z,76.23
2023-03-20T19:08:45.245Z,75.70
2023-03-20T19:11:15.316Z,74.96
2023-03-20T19:13:48.810Z,76.06
2023-03-20T19:16:31.792Z,75.78
2023-03-20T19:19:01.270Z,76.47
2023-03-20T19:21:29.669Z,77.96
2023-03-20T19:23:58.273Z,80.67
2023-03-20T19:26:26.791Z,79.91
2023-03-20T19:28:55.054Z,81.24
2023-03-20T19:31:22.963Z,82.04
2023-03-20T19:33:49.923Z,83.41
2023-03-20T19:36:23.584Z,86.26
2023-03-20T19:38:51.145Z,90.85
2023-03-20T19:41:19.901Z,93.32
2023-03-20T19:43:52.802Z,96.41
2023-03-20T19:46:38.130Z,96.88
2023-03-20T19:49:06.639Z,98.57
2023-03-20T19:51:33.193Z,100.00
2023-03-20T19:53:59.563Z,100.00
2023-03-20T19:56:26.967Z,100.00
2023-03-20T19:58:53.517Z,100.00
2023-03-20T20:01:22.770Z,100.00
2023-03-20T20:03:49.910Z,100.00
2023-03-20T20:06:16.617Z,100.00
2023-03-20T20:08:48.461Z,100.00
2023-03-20T20:11:16.772Z,100.00
2023-03-20T20:14:03.804Z,100.00
2023-03-20T20:16:30.425Z,100.00
2023-03-20T20:18:56.826Z,100.00
2023-03-20T20:24:09.645Z,100.00
2023-03-20T20:26:41.206Z,100.00
2023-03-20T20:29:15.730Z,100.00
2023-03-20T20:31:42.156Z,100.00
2023-03-20T20:35:08.573Z,100.00
2023-03-20T20:39:41.324Z,100.00
2023-03-20T20:42:07.753Z,100.00
2023-03-20T20:44:34.624Z,100.00
2023-03-20T20:47:01.030Z,100.00
2023-03-20T20:49:27.585Z,100.00
2023-03-20T20:51:53.989Z,100.00
2023-03-20T20:54:20.384Z,100.00
2023-03-20T20:56:46.752Z,100.00
2023-03-20T20:59:14.176Z,100.00
2023-03-20T21:01:40.680Z,100.00
2023-03-20T21:04:07.161Z,100.00
2023-03-20T21:07:05.816Z,100.00
2023-03-20T21:09:19.953Z,100.00
2023-03-20T21:11:46.630Z,100.00
2023-03-20T21:14:13.937Z,100.00
2023-03-20T21:16:40.327Z,100.00
2023-03-20T21:19:06.824Z,100.00
2023-03-20T21:21:34.929Z,100.00
2023-03-20T21:24:01.875Z,100.00
2023-03-20T21:26:28.261Z,100.00
2023-03-20T21:28:54.685Z,100.00
2023-03-20T21:31:26.531Z,100.00
2023-03-20T21:33:55.446Z,100.00
2023-03-20T21:36:23.429Z,100.00
2023-03-20T21:41:38.034Z,100.00
2023-03-20T21:44:06.464Z,100.00
2023-03-20T21:47:10.290Z,100.00
2023-03-20T21:56:00.205Z,100.00
2023-03-20T22:03:33.829Z,100.00
2023-03-20T22:12:22.813Z,100.00
2023-03-20T22:17:51.147Z,100.00
2023-03-20T22:23:32.324Z,100.00
2023-03-20T22:26:16.654Z,100.00
2023-03-20T22:28:56.703Z,100.00
2023-03-20T22:42:50.740Z,100.00
2023-03-20T22:45:09.639Z,100.00
2023-03-20T22:47:36.541Z,100.00
2023-03-20T22:50:03.073Z,100.00
2023-03-20T22:52:45.630Z,100.00
2023-03-20T22:55:14.620Z,100.00
2023-03-20T22:57:47.748Z,100.00
2023-03-20T23:00:22.523Z,100.00
2023-03-20T23:02:48.904Z,100.00
2023-03-20T23:05:15.352Z,100.00
2023-03-20T23:07:41.867Z,100.00
2023-03-20T23:10:09.733Z,100.00
2023-03-20T23:12:39.504Z,100.00
2023-03-20T23:15:06.694Z,100.00
2023-03-20T23:17:33.071Z,100.00
2023-03-20T23:20:10.945Z,100.00
2023-03-20T23:22:38.330Z,100.00
2023-03-20T23:25:13.378Z,100.00
2023-03-20T23:27:44.832Z,100.00
2023-03-20T23:30:11.840Z,100.00
2023-03-20T23:32:39.667Z,100.00
2023-03-20T23:35:07.524Z,100.00
2023-03-20T23:37:34.775Z,100.00
2023-03-20T23:40:01.177Z,100.00
2023-03-20T23:42:30.557Z,100.00
2023-03-20T23:45:00.386Z,100.00
2023-03-20T23:47:44.222Z,100.00
2023-03-20T23:50:17.267Z,100.00
2023-03-20T23:52:57.141Z,100.00
2023-03-20T23:55:27.672Z,100.00
2023-03-20T23:57:54.074Z,100.00
